Time;durP1;ratioP1;P1;durP2;ratioP2;P2;SDS_P1;SDS_P2;PMS_P1;PMS_P2;Temp;Humidity;BMP_temperature;BMP_pressure;BME280_temperature;BME280_humidity;BME280_pressure;Samples;Min_cycle;Max_cycle;Signal;HPM_P1;HPM_P2
2021/04/12 00:03:22;;;;;;;;;;;1.70;99.90;;;;;;10453534;28;19925;-88
2021/04/12 00:08:35;;;;;;;;;;;1.50;99.90;;;;;;10452286;28;19978;-88
2021/04/12 00:13:42;;;;;;;;;;;1.40;99.90;;;;;;10451873;28;19965;-88
2021/04/12 00:36:34;;;;;;;;;;;1.30;99.90;;;;;;10559140;27;19955;-86
2021/04/12 00:41:41;;;;;;;;;;;1.30;99.90;;;;;;10582561;28;19923;-86
2021/04/12 00:47:12;;;;;;;;;;;1.20;99.90;;;;;;10565181;28;19978;-85
2021/04/12 00:52:45;;;;;;;;;;;1.10;99.90;;;;;;10510526;28;19946;-86
2021/04/12 00:57:55;;;;;;;;;;;1.10;99.90;;;;;;10510171;28;19932;-86
2021/04/12 01:02:59;;;;;;;;;;;1.30;99.90;;;;;;10564894;28;19923;-86
2021/04/12 01:08:21;;;;;;;;;;;1.30;99.90;;;;;;10564440;28;19930;-85
2021/04/12 01:13:25;;;;;;;;;;;2.00;99.90;;;;;;10530365;28;19942;-86
2021/04/12 01:18:35;;;;;;;;;;;1.00;99.90;;;;;;10564494;28;19932;-85
2021/04/12 01:23:54;;;;;;;;;;;0.90;99.90;;;;;;10581733;28;19931;-86
2021/04/12 01:29:15;;;;;;;;;;;0.90;99.90;;;;;;10582281;28;19931;-86
2021/04/12 01:34:35;;;;;;;;;;;0.80;99.90;;;;;;10563603;28;20276;-86
2021/04/12 01:39:58;;;;;;;;;;;0.80;99.90;;;;;;10563252;28;19924;-86
2021/04/12 01:45:08;;;;;;;;;;;0.90;99.90;;;;;;10564127;28;19924;-86
2021/04/12 01:50:12;;;;;;;;;;;1.00;99.90;;;;;;10563121;28;20434;-86
2021/04/12 01:55:32;;;;;;;;;;;1.00;99.90;;;;;;10581888;28;19924;-86
2021/04/12 02:00:39;;;;;;;;;;;1.00;99.90;;;;;;10582077;28;20277;-86
2021/04/12 02:05:40;;;;;;;;;;;1.00;99.90;;;;;;10571327;28;20007;-86
2021/04/12 02:11:11;;;;;;;;;;;1.00;99.90;;;;;;10570228;28;19923;-87
2021/04/12 02:16:16;;;;;;;;;;;0.90;99.90;;;;;;10482612;28;19928;-86
2021/04/12 02:21:41;;;;;;;;;;;0.70;99.90;;;;;;10588800;28;20007;-86
2021/04/12 02:26:52;;;;;;;;;;;0.80;99.90;;;;;;10569855;28;20357;-86
2021/04/12 02:32:13;;;;;;;;;;;0.70;99.90;;;;;;10570402;28;19928;-87
2021/04/12 02:37:33;;;;;;;;;;;0.90;99.90;;;;;;10569828;28;19955;-87
2021/04/12 02:42:53;;;;;;;;;;;0.90;99.90;;;;;;10569493;28;19957;-87
2021/04/12 02:48:12;;;;;;;;;;;1.00;99.90;;;;;;10570092;28;19924;-87
2021/04/12 02:53:22;;;;;;;;;;;1.00;99.90;;;;;;10568746;28;20271;-87
2021/04/12 02:58:26;;;;;;;;;;;0.90;99.90;;;;;;10570972;28;20011;-86
2021/04/12 03:03:34;;;;;;;;;;;0.90;99.90;;;;;;10569142;28;19930;-87
2021/04/12 03:08:54;;;;;;;;;;;1.00;99.90;;;;;;10568258;28;20362;-87
2021/04/12 03:14:04;;;;;;;;;;;1.00;99.90;;;;;;10567493;28;19924;-87
2021/04/12 03:19:44;;;;;;;;;;;1.00;99.90;;;;;;10568129;28;20362;-86
2021/04/12 03:24:59;;;;;;;;;;;1.20;99.90;;;;;;10456124;28;20015;-87
2021/04/12 03:30:36;;;;;;;;;;;1.20;99.90;;;;;;10545420;28;20264;-87
2021/04/12 03:35:48;;;;;;;;;;;1.10;99.90;;;;;;10493317;28;19931;-87
2021/04/12 03:41:08;;;;;;;;;;;1.10;99.90;;;;;;10566712;28;19930;-87
2021/04/12 03:46:09;;;;;;;;;;;1.00;99.90;;;;;;10584683;28;19924;-87
2021/04/12 03:51:19;;;;;;;;;;;1.10;99.90;;;;;;10567176;28;19931;-87
2021/04/12 03:56:21;;;;;;;;;;;1.10;99.90;;;;;;10566187;28;20379;-87
2021/04/12 04:01:22;;;;;;;;;;;1.20;99.90;;;;;;10584640;28;20003;-87
2021/04/12 04:06:42;;;;;;;;;;;1.30;99.90;;;;;;10566597;28;19997;-88
2021/04/12 04:11:47;;;;;;;;;;;1.30;99.90;;;;;;10566094;28;19955;-87
2021/04/12 04:16:54;;;;;;;;;;;1.30;99.90;;;;;;10565544;28;20351;-87
2021/04/12 04:22:14;;;;;;;;;;;1.30;99.90;;;;;;10565469;28;19971;-88
2021/04/12 04:27:36;;;;;;;;;;;1.30;99.90;;;;;;10565857;28;19927;-88
2021/04/12 04:32:56;;;;;;;;;;;1.50;99.90;;;;;;10564658;28;19959;-87
2021/04/12 04:38:18;;;;;;;;;;;1.40;99.90;;;;;;10583618;28;19924;-88
2021/04/12 04:43:29;;;;;;;;;;;1.40;99.90;;;;;;10565130;28;20468;-87
2021/04/12 04:48:48;;;;;;;;;;;2.00;99.90;;;;;;10564462;28;19930;-87
2021/04/12 04:53:50;;;;;;;;;;;1.20;99.90;;;;;;10582565;28;20281;-87
2021/04/12 04:58:54;;;;;;;;;;;1.10;99.90;;;;;;10564986;28;20003;-88
2021/04/12 05:04:06;;;;;;;;;;;1.20;99.90;;;;;;10564565;28;19924;-88
2021/04/12 05:09:18;;;;;;;;;;;1.10;99.90;;;;;;10564741;28;19924;-88
2021/04/12 05:14:44;;;;;;;;;;;1.20;99.90;;;;;;10583615;28;19934;-88
2021/04/12 05:19:49;;;;;;;;;;;1.10;99.90;;;;;;10564476;28;19924;-88
2021/04/12 05:24:53;;;;;;;;;;;1.50;99.90;;;;;;10564330;28;20026;-87
2021/04/12 05:30:13;;;;;;;;;;;1.10;99.90;;;;;;10564249;28;20034;-87
2021/04/12 05:35:17;;;;;;;;;;;1.10;99.90;;;;;;10582971;28;19931;-88
2021/04/12 05:40:37;;;;;;;;;;;1.20;99.90;;;;;;10571559;28;19930;-87
2021/04/12 05:45:39;;;;;;;;;;;1.40;99.90;;;;;;10591109;28;19946;-87
2021/04/12 05:50:42;;;;;;;;;;;1.50;99.90;;;;;;10572280;28;19928;-88
2021/04/12 05:55:43;;;;;;;;;;;1.80;99.90;;;;;;10571715;28;20023;-88
2021/04/12 06:01:09;;;;;;;;;;;1.90;99.90;;;;;;10571959;28;19930;-88
2021/04/12 06:06:29;;;;;;;;;;;2.00;99.90;;;;;;10571806;28;19924;-88
2021/04/12 06:11:52;;;;;;;;;;;2.20;99.90;;;;;;10570389;28;20374;-87
2021/04/12 06:16:53;;;;;;;;;;;2.40;99.90;;;;;;10588120;28;20014;-87
2021/04/12 06:22:09;;;;;;;;;;;3.80;99.90;;;;;;10603745;22;19924;-92
2021/04/12 06:27:21;;;;;;;;;;;3.60;99.90;;;;;;10614585;27;19927;-92
2021/04/12 06:32:40;;;;;;;;;;;4.50;99.90;;;;;;10632561;27;20010;-91
2021/04/12 06:38:04;;;;;;;;;;;5.20;99.90;;;;;;10614011;27;19930;-92
2021/04/12 06:43:23;;;;;;;;;;;5.60;99.90;;;;;;10613597;27;19930;-92
2021/04/12 06:48:44;;;;;;;;;;;6.20;99.90;;;;;;10613710;27;19927;-92
2021/04/12 06:54:06;;;;;;;;;;;6.90;99.90;;;;;;10613622;27;19923;-91
2021/04/12 06:59:29;;;;;;;;;;;8.00;99.90;;;;;;10612728;27;20289;-92
2021/04/12 07:04:34;;;;;;;;;;;9.90;99.90;;;;;;10562654;27;19923;-92
2021/04/12 07:09:35;;;;;;;;;;;8.30;99.90;;;;;;10612633;27;19930;-93
2021/04/12 07:14:52;;;;;;;;;;;7.80;99.90;;;;;;10612113;27;20273;-91
2021/04/12 07:19:53;;;;;;;;;;;9.70;99.90;;;;;;10612020;27;19949;-90
2021/04/12 07:24:55;;;;;;;;;;;8.20;99.90;;;;;;10611377;27;19929;-91
2021/04/12 07:30:16;;;;;;;;;;;8.30;99.90;;;;;;10610905;27;19974;-90
2021/04/12 07:35:22;;;;;;;;;;;8.40;99.90;;;;;;10612246;27;19960;-91
2021/04/12 07:40:43;;;;;;;;;;;9.00;99.90;;;;;;10610585;27;20374;-91
2021/04/12 07:45:55;;;;;;;;;;;9.00;99.90;;;;;;10610282;27;20370;-91
2021/04/12 07:50:56;;;;;;;;;;;9.20;98.90;;;;;;10610495;27;19924;-90
2021/04/12 07:56:16;;;;;;;;;;;10.10;99.90;;;;;;10610853;27;19924;-92
2021/04/12 08:01:32;;;;;;;;;;;10.80;99.20;;;;;;10610151;27;20332;-91
2021/04/12 08:06:40;;;;;;;;;;;9.60;99.10;;;;;;10611661;27;20027;-91
2021/04/12 08:11:43;;;;;;;;;;;10.00;99.90;;;;;;10627837;27;20014;-91
2021/04/12 08:17:05;;;;;;;;;;;9.90;99.30;;;;;;10610332;27;19927;-91
2021/04/12 08:22:16;;;;;;;;;;;7.80;99.90;;;;;;10608577;27;19923;-90
2021/04/12 08:27:37;;;;;;;;;;;6.70;99.90;;;;;;10609421;27;20014;-91
2021/04/12 08:32:57;;;;;;;;;;;6.80;99.90;;;;;;10608766;27;19923;-91
2021/04/12 08:38:27;;;;;;;;;;;9.20;99.90;;;;;;10608146;27;20377;-91
2021/04/12 08:43:47;;;;;;;;;;;10.80;98.60;;;;;;10603218;27;19927;-91
2021/04/12 08:49:03;;;;;;;;;;;9.50;97.50;;;;;;10625736;27;20354;-90
2021/04/12 08:54:15;;;;;;;;;;;9.60;99.90;;;;;;10608405;27;20377;-92
2021/04/12 08:59:35;;;;;;;;;;;9.80;99.20;;;;;;10607484;28;19924;-91
2021/04/12 09:04:51;;;;;;;;;;;8.70;99.30;;;;;;10607325;28;19923;-89
2021/04/12 09:10:05;;;;;;;;;;;7.80;99.90;;;;;;10606749;27;19923;-89
2021/04/12 09:15:09;;;;;;;;;;;7.70;99.90;;;;;;10633963;27;19923;-88
2021/04/12 09:20:20;;;;;;;;;;;7.20;99.90;;;;;;10615062;27;19923;-89
2021/04/12 09:25:47;;;;;;;;;;;7.00;99.90;;;;;;10634587;27;19959;-89
2021/04/12 09:30:52;;;;;;;;;;;8.40;99.90;;;;;;10610241;27;20010;-90
2021/04/12 09:36:20;;;;;;;;;;;8.70;99.90;;;;;;10614033;27;20282;-90
2021/04/12 09:41:40;;;;;;;;;;;10.20;99.90;;;;;;10633660;27;19970;-91
2021/04/12 09:46:44;;;;;;;;;;;10.00;98.70;;;;;;10594080;27;19924;-90
2021/04/12 09:51:49;;;;;;;;;;;10.50;99.10;;;;;;10614208;27;20331;-91
2021/04/12 09:56:57;;;;;;;;;;;10.60;98.10;;;;;;10632724;27;19988;-91
2021/04/12 10:02:18;;;;;;;;;;;9.70;97.40;;;;;;10614578;27;20035;-91
2021/04/12 10:07:43;;;;;;;;;;;9.00;98.60;;;;;;10613576;27;20297;-91
2021/04/12 10:13:03;;;;;;;;;;;9.40;97.50;;;;;;10614698;27;19934;-90
2021/04/12 10:18:07;;;;;;;;;;;10.60;97.00;;;;;;10641119;27;19934;-90
2021/04/12 10:23:12;;;;;;;;;;;10.50;95.10;;;;;;10673264;27;19929;-90
2021/04/12 10:28:22;;;;;;;;;;;10.90;92.40;;;;;;10574124;27;19963;-91
2021/04/12 10:33:38;;;;;;;;;;;10.30;94.30;;;;;;10569750;28;20388;-90
2021/04/12 10:38:41;;;;;;;;;;;9.70;96.30;;;;;;10588860;28;19924;-90
2021/04/12 10:43:51;;;;;;;;;;;8.60;97.90;;;;;;10571595;27;19923;-91
2021/04/12 10:49:12;;;;;;;;;;;10.70;95.80;;;;;;10586128;27;19923;-90
2021/04/12 10:54:29;;;;;;;;;;;10.10;95.10;;;;;;10611261;27;20293;-90
2021/04/12 10:59:46;;;;;;;;;;;8.50;98.30;;;;;;10610084;27;20398;-90
2021/04/12 11:04:52;;;;;;;;;;;7.50;99.90;;;;;;10611605;27;19923;-90
2021/04/12 11:09:53;;;;;;;;;;;9.70;99.90;;;;;;10628614;27;19969;-90
2021/04/12 11:14:54;;;;;;;;;;;9.60;98.60;;;;;;10601431;27;20437;-90
2021/04/12 11:20:05;;;;;;;;;;;10.20;98.10;;;;;;10610799;27;19972;-90
2021/04/12 11:25:07;;;;;;;;;;;9.20;97.20;;;;;;10629013;27;19929;-90
2021/04/12 11:30:21;;;;;;;;;;;9.70;97.90;;;;;;10610707;27;20294;-90
2021/04/12 11:35:34;;;;;;;;;;;11.40;97.70;;;;;;10627683;27;19924;-89
2021/04/12 11:40:37;;;;;;;;;;;10.90;89.60;;;;;;10618067;27;19931;-89
2021/04/12 11:45:57;;;;;;;;;;;11.10;93.80;;;;;;10609533;27;19924;-90
2021/04/12 11:51:08;;;;;;;;;;;10.90;93.30;;;;;;10609302;27;20089;-90
2021/04/12 11:56:29;;;;;;;;;;;10.40;91.50;;;;;;10607170;27;19930;-91
2021/04/12 12:01:43;;;;;;;;;;;10.40;93.20;;;;;;10579150;27;19923;-91
2021/04/12 12:07:06;;;;;;;;;;;10.60;90.40;;;;;;10609259;27;19930;-91
2021/04/12 12:12:22;;;;;;;;;;;10.00;92.10;;;;;;10609569;27;20006;-91
2021/04/12 12:17:26;;;;;;;;;;;10.90;92.20;;;;;;10608722;27;20363;-90
2021/04/12 12:22:41;;;;;;;;;;;10.80;91.40;;;;;;10608067;27;20002;-91
2021/04/12 12:28:00;;;;;;;;;;;9.70;88.80;;;;;;10609598;27;19928;-91
2021/04/12 12:33:13;;;;;;;;;;;9.10;92.30;;;;;;10626633;27;19952;-90
2021/04/12 12:38:35;;;;;;;;;;;10.00;94.00;;;;;;10607223;27;20381;-92
2021/04/12 12:43:38;;;;;;;;;;;10.40;91.60;;;;;;10607738;27;19973;-90
2021/04/12 12:48:46;;;;;;;;;;;10.90;89.00;;;;;;10607398;27;19923;-90
2021/04/12 12:53:50;;;;;;;;;;;9.90;91.40;;;;;;10607721;27;19923;-90
2021/04/12 12:58:59;;;;;;;;;;;10.90;86.50;;;;;;10599134;27;19923;-90
2021/04/12 13:04:11;;;;;;;;;;;11.30;86.90;;;;;;10583189;28;19930;-90
2021/04/12 13:09:13;;;;;;;;;;;11.90;79.50;;;;;;10564508;28;19923;-90
2021/04/12 13:14:17;;;;;;;;;;;10.80;74.80;;;;;;10564553;28;20025;-89
2021/04/12 13:19:19;;;;;;;;;;;9.20;90.20;;;;;;10564020;28;20440;-89
2021/04/12 13:24:26;;;;;;;;;;;7.90;95.20;;;;;;10564415;28;20283;-89
2021/04/12 13:29:30;;;;;;;;;;;7.80;97.40;;;;;;10565289;28;19924;-90
2021/04/12 13:34:49;;;;;;;;;;;8.20;97.20;;;;;;10564324;28;19924;-89
2021/04/12 13:40:07;;;;;;;;;;;8.40;98.70;;;;;;10563250;28;19924;-91
2021/04/12 13:45:09;;;;;;;;;;;7.60;99.90;;;;;;10564551;28;20027;-90
2021/04/12 13:50:24;;;;;;;;;;;6.90;99.90;;;;;;10610401;27;19924;-89
2021/04/12 13:55:27;;;;;;;;;;;7.30;99.90;;;;;;10624426;27;19957;-90
2021/04/12 14:00:33;;;;;;;;;;;8.60;99.90;;;;;;10631871;27;19923;-90
2021/04/12 14:05:36;;;;;;;;;;;7.90;99.90;;;;;;10607766;27;19928;-90
2021/04/12 14:10:41;;;;;;;;;;;7.80;99.10;;;;;;10612772;27;19930;-91
2021/04/12 14:15:58;;;;;;;;;;;8.50;98.80;;;;;;10614351;27;19961;-91
2021/04/12 14:21:17;;;;;;;;;;;8.90;96.40;;;;;;10666630;27;20329;-90
2021/04/12 14:26:30;;;;;;;;;;;9.10;97.80;;;;;;10655465;27;19923;-90
2021/04/12 14:31:34;;;;;;;;;;;9.20;94.00;;;;;;10635105;27;20293;-90
2021/04/12 14:36:38;;;;;;;;;;;9.60;91.00;;;;;;10612124;27;19923;-90
2021/04/12 14:41:50;;;;;;;;;;;10.10;92.20;;;;;;10612346;27;19924;-90
2021/04/12 14:46:52;;;;;;;;;;;9.60;89.00;;;;;;10569344;27;19924;-91
2021/04/12 14:52:23;;;;;;;;;;;9.70;89.70;;;;;;10606788;27;19934;-90
2021/04/12 14:57:25;;;;;;;;;;;9.10;90.40;;;;;;10630056;27;20018;-90
2021/04/12 15:02:33;;;;;;;;;;;9.00;92.90;;;;;;10610911;27;20401;-90
2021/04/12 15:07:40;;;;;;;;;;;9.30;92.50;;;;;;10610766;27;19963;-90
2021/04/12 15:12:47;;;;;;;;;;;9.40;91.30;;;;;;10611264;27;19946;-88
2021/04/12 15:17:50;;;;;;;;;;;9.10;92.90;;;;;;10610697;27;19989;-88
2021/04/12 15:22:53;;;;;;;;;;;8.20;92.50;;;;;;10570203;28;19924;-89
2021/04/12 15:28:02;;;;;;;;;;;8.70;90.50;;;;;;10567456;28;19928;-88
2021/04/12 15:33:06;;;;;;;;;;;8.90;90.20;;;;;;10567330;28;19934;-88
2021/04/12 15:38:08;;;;;;;;;;;9.00;84.10;;;;;;10580983;27;19930;-87
2021/04/12 15:43:18;;;;;;;;;;;9.20;81.90;;;;;;10627174;27;19923;-88
2021/04/12 15:48:24;;;;;;;;;;;9.20;78.70;;;;;;10603143;27;19946;-87
2021/04/12 15:53:26;;;;;;;;;;;9.10;75.70;;;;;;10608780;27;19928;-87
2021/04/12 15:58:31;;;;;;;;;;;8.90;76.50;;;;;;10592326;27;19924;-88
2021/04/12 16:03:41;;;;;;;;;;;8.50;88.20;;;;;;10610394;22;19930;-89
2021/04/12 16:08:51;;;;;;;;;;;8.30;90.00;;;;;;10405492;28;19936;-90
2021/04/12 16:14:07;;;;;;;;;;;7.90;91.30;;;;;;10432924;28;20040;-89
2021/04/12 16:19:16;;;;;;;;;;;7.80;92.70;;;;;;10386334;28;22118;-89
2021/04/12 16:24:39;;;;;;;;;;;8.00;87.90;;;;;;10392424;28;20007;-89
2021/04/12 16:29:48;;;;;;;;;;;8.30;89.00;;;;;;10405472;28;20018;-89
2021/04/12 16:34:58;;;;;;;;;;;8.40;90.30;;;;;;10360948;28;19936;-89
2021/04/12 16:40:00;;;;;;;;;;;8.50;86.60;;;;;;10431024;28;20012;-89
2021/04/12 16:45:05;;;;;;;;;;;8.50;84.10;;;;;;10429797;28;19929;-88
2021/04/12 16:50:12;;;;;;;;;;;8.20;88.30;;;;;;10429337;28;19936;-89
2021/04/12 16:55:18;;;;;;;;;;;8.20;88.00;;;;;;10429181;28;20422;-89
2021/04/12 17:00:22;;;;;;;;;;;8.20;86.10;;;;;;10363788;28;19961;-88
2021/04/12 17:05:29;;;;;;;;;;;8.50;92.30;;;;;;10409422;28;19932;-89
2021/04/12 17:10:48;;;;;;;;;;;8.20;93.10;;;;;;10393416;28;19925;-89
2021/04/12 17:16:06;;;;;;;;;;;7.90;94.70;;;;;;10391005;28;20585;-88
2021/04/12 17:21:22;;;;;;;;;;;7.70;96.10;;;;;;10332131;28;20376;-88
2021/04/12 17:26:31;;;;;;;;;;;7.50;97.10;;;;;;10399157;28;20280;-89
2021/04/12 17:31:45;;;;;;;;;;;7.10;98.30;;;;;;10361913;28;19929;-89
2021/04/12 17:36:52;;;;;;;;;;;6.60;99.90;;;;;;10374253;28;19979;-88
2021/04/12 17:41:58;;;;;;;;;;;6.80;99.90;;;;;;10374072;28;20356;-88
2021/04/12 17:46:59;;;;;;;;;;;6.80;99.90;;;;;;10430652;28;19926;-89
2021/04/12 17:52:03;;;;;;;;;;;6.80;99.90;;;;;;10334093;28;20006;-89
2021/04/12 17:57:09;;;;;;;;;;;7.00;99.00;;;;;;10401223;28;19925;-89
2021/04/12 18:02:37;;;;;;;;;;;6.60;98.40;;;;;;10435654;28;20349;-88
2021/04/12 18:07:40;;;;;;;;;;;6.20;98.00;;;;;;10410071;28;20376;-88
2021/04/12 18:12:45;;;;;;;;;;;6.00;98.90;;;;;;10400651;28;19926;-89
2021/04/12 18:17:47;;;;;;;;;;;5.80;98.30;;;;;;10404843;28;20744;-88
2021/04/12 18:22:54;;;;;;;;;;;5.70;99.30;;;;;;10338972;28;20024;-88
2021/04/12 18:28:06;;;;;;;;;;;5.50;98.60;;;;;;10439394;28;20375;-89
2021/04/12 18:33:12;;;;;;;;;;;5.40;99.50;;;;;;10373488;28;20072;-89
2021/04/12 18:38:15;;;;;;;;;;;5.20;99.90;;;;;;10439837;28;19932;-89
2021/04/12 18:43:23;;;;;;;;;;;6.20;99.90;;;;;;10436056;28;20554;-89
2021/04/12 18:48:43;;;;;;;;;;;5.00;99.90;;;;;;10342113;28;20395;-88
2021/04/12 18:53:53;;;;;;;;;;;4.70;99.90;;;;;;10398922;28;20013;-88
2021/04/12 18:58:55;;;;;;;;;;;4.60;99.90;;;;;;10397657;28;20353;-88
2021/04/12 19:04:18;;;;;;;;;;;5.30;99.90;;;;;;10341757;28;19978;-88
2021/04/12 19:09:30;;;;;;;;;;;4.50;99.90;;;;;;10392858;28;20373;-87
2021/04/12 19:14:36;;;;;;;;;;;4.50;99.90;;;;;;10399565;28;19937;-87
2021/04/12 19:19:49;;;;;;;;;;;4.20;99.90;;;;;;10432008;28;19987;-87
2021/04/12 19:25:00;;;;;;;;;;;4.20;99.90;;;;;;10435872;28;20600;-88
2021/04/12 19:30:11;;;;;;;;;;;4.00;99.90;;;;;;10438096;28;19929;-88
2021/04/12 19:35:35;;;;;;;;;;;4.00;99.90;;;;;;10414543;28;20009;-88
2021/04/12 19:40:47;;;;;;;;;;;3.80;99.90;;;;;;10420276;28;20016;-88
2021/04/12 19:45:54;;;;;;;;;;;3.70;99.90;;;;;;10371418;28;19948;-88
2021/04/12 19:51:05;;;;;;;;;;;3.60;99.90;;;;;;10454963;28;19983;-88
2021/04/12 19:56:12;;;;;;;;;;;3.50;99.90;;;;;;10435173;28;20036;-88
2021/04/12 20:01:20;;;;;;;;;;;3.50;99.90;;;;;;10432958;28;19925;-88
2021/04/12 20:06:24;;;;;;;;;;;3.40;99.90;;;;;;10360541;28;20282;-88
2021/04/12 20:11:47;;;;;;;;;;;3.40;99.90;;;;;;10407572;28;19918;-88
2021/04/12 20:16:54;;;;;;;;;;;3.50;99.90;;;;;;10339393;28;20024;-88
2021/04/12 20:21:58;;;;;;;;;;;3.30;99.90;;;;;;10328541;28;19930;-88
2021/04/12 20:27:13;;;;;;;;;;;3.20;99.90;;;;;;10333686;28;20016;-88
2021/04/12 20:32:14;;;;;;;;;;;3.20;99.90;;;;;;10437574;28;19929;-88
2021/04/12 20:37:25;;;;;;;;;;;3.00;99.90;;;;;;10369597;28;19930;-88
2021/04/12 20:42:27;;;;;;;;;;;3.00;99.90;;;;;;10435731;28;20310;-87
2021/04/12 20:47:40;;;;;;;;;;;3.00;99.90;;;;;;10423729;28;20357;-88
2021/04/12 20:52:51;;;;;;;;;;;3.00;99.90;;;;;;10412343;28;20038;-88
2021/04/12 20:58:03;;;;;;;;;;;2.80;99.90;;;;;;10428695;28;20288;-88
2021/04/12 21:03:08;;;;;;;;;;;2.80;99.90;;;;;;10436427;28;19926;-88
2021/04/12 21:08:26;;;;;;;;;;;2.80;99.90;;;;;;10442101;28;19925;-88
2021/04/12 21:13:28;;;;;;;;;;;2.80;99.90;;;;;;10438080;28;20028;-88
2021/04/12 21:18:34;;;;;;;;;;;2.80;99.90;;;;;;10408657;28;19933;-88
2021/04/12 21:23:38;;;;;;;;;;;2.60;99.90;;;;;;10443125;28;20387;-88
2021/04/12 21:28:40;;;;;;;;;;;2.30;99.90;;;;;;10449299;28;19926;-88
2021/04/12 21:33:51;;;;;;;;;;;2.40;99.90;;;;;;10449284;28;20016;-88
2021/04/12 21:39:15;;;;;;;;;;;2.30;99.90;;;;;;10449295;28;19926;-88
2021/04/12 21:44:21;;;;;;;;;;;2.20;99.90;;;;;;10441042;28;19925;-88
2021/04/12 21:49:23;;;;;;;;;;;2.20;99.90;;;;;;10449205;28;20283;-88
2021/04/12 21:54:24;;;;;;;;;;;2.10;99.90;;;;;;10446797;28;20016;-88
2021/04/12 21:59:28;;;;;;;;;;;2.10;99.90;;;;;;10423792;28;19930;-89
2021/04/12 22:04:36;;;;;;;;;;;1.90;99.90;;;;;;10540588;22;19923;-93
2021/04/12 22:09:45;;;;;;;;;;;1.80;99.90;;;;;;10725896;27;19926;-93
2021/04/12 22:15:04;;;;;;;;;;;1.90;99.90;;;;;;10726318;27;20340;-93
2021/04/12 22:20:19;;;;;;;;;;;1.90;99.90;;;;;;10701240;27;19958;-93
2021/04/12 22:25:26;;;;;;;;;;;2.20;99.90;;;;;;10717526;27;19927;-92
2021/04/12 22:30:39;;;;;;;;;;;2.10;99.90;;;;;;10700756;27;19923;-93
2021/04/12 22:41:21;;;;;;;;;;;2.10;99.90;;;;;;10718565;27;19933;-93
2021/04/12 22:46:41;;;;;;;;;;;2.10;99.90;;;;;;10700351;27;19929;-93
2021/04/12 22:51:45;;;;;;;;;;;2.30;99.90;;;;;;10698997;27;20348;-92
2021/04/12 22:57:05;;;;;;;;;;;2.50;99.90;;;;;;10698882;27;20005;-92
2021/04/12 23:02:07;;;;;;;;;;;2.20;99.90;;;;;;10698725;27;20296;-92
2021/04/12 23:07:09;;;;;;;;;;;2.20;99.90;;;;;;10698553;27;19962;-92
2021/04/12 23:12:14;;;;;;;;;;;2.20;99.90;;;;;;10697820;27;19923;-92
2021/04/12 23:17:18;;;;;;;;;;;2.10;99.90;;;;;;10698424;27;19929;-92
2021/04/12 23:22:32;;;;;;;;;;;2.10;99.90;;;;;;10697822;27;20006;-92
2021/04/12 23:27:36;;;;;;;;;;;1.90;99.90;;;;;;10698104;27;19929;-92
2021/04/12 23:32:38;;;;;;;;;;;2.00;99.90;;;;;;10696503;27;19922;-92
2021/04/12 23:37:49;;;;;;;;;;;2.10;99.90;;;;;;10679794;27;20717;-91
2021/04/12 23:42:51;;;;;;;;;;;2.10;99.90;;;;;;10687482;27;19929;-92
2021/04/12 23:47:55;;;;;;;;;;;2.10;99.90;;;;;;10654116;27;19946;-92
2021/04/12 23:52:59;;;;;;;;;;;2.00;99.90;;;;;;10671437;27;20371;-92
2021/04/12 23:58:01;;;;;;;;;;;3.60;99.90;;;;;;10653212;27;20280;-92
